Observations for ISLAY PORT ELLEN, United Kingdom (EGPI)

EGPI 180250Z AUTO 13007KT 9999 NCD 03/02 Q1017  
EGPI 180220Z AUTO 13008KT 9999 NCD 03/02 Q1017  
EGPI 180150Z AUTO 13008KT 9999 NCD 04/03 Q1017  
EGPI 180120Z AUTO 11006KT 9999 NCD 04/03 Q1017  
EGPI 180050Z AUTO VRB03KT 9999 NCD 04/04 Q1017  
EGPI 180020Z AUTO 12007KT 9999 FEW033/// 03/02 Q1017
EGPI 172350Z AUTO 13006KT 9999 NCD 03/02 Q1017  
EGPI 172320Z AUTO 13005KT 9999 NCD 04/03 Q1017  
EGPI 172250Z AUTO 13004KT 110V170 9999 NCD 04/04 Q1017  
EGPI 172220Z AUTO VRB03KT 9999 NCD 04/03 Q1017  
EGPI 172150Z AUTO 14004KT 120V180 9999 NCD 04/03 Q1017  
EGPI 172120Z AUTO 14005KT 9999 NCD 04/03 Q1017  
EGPI 172050Z AUTO 16004KT 9999 FEW028/// BKN038/// 04/03 Q1017  
EGPI 172020Z AUTO 13006KT 9999 SCT027/// SCT037/// 04/03 Q1017  
EGPI 171950Z AUTO 13005KT 9999 BKN027/// 03/02 Q1017
EGPI 171920Z AUTO 13005KT 9999 NCD 03/02 Q1017  
EGPI 171850Z AUTO 13006KT 9999 NCD 03/02 Q1017  
EGPI 171820Z AUTO 17005KT 130V210 9999 NCD 04/02 Q1017 RERA 
EGPI 171750Z AUTO 22006KT 9999 FEW021/// SCT039/// 05/03 Q1016 RERA 
EGPI 171720Z AUTO 22006KT 9999 SCT029/// SCT040/// 06/04 Q1016  
EGPI 171650Z AUTO 21008KT 9999 FEW031/// 07/03 Q1016
EGPI 171620Z AUTO 23008KT 9999 FEW041/// 07/03 Q1016
EGPI 171550Z AUTO 23009KT 9999 FEW034/// 08/04 Q1016
EGPI 171520Z AUTO 23009KT 9999 NCD 07/04 Q1015  
EGPI 171450Z AUTO 24012KT 9999 NCD 07/04 Q1015  
EGPI 171420Z AUTO 22012KT 9999 NCD 07/05 Q1015  
EGPI 171350Z AUTO 22011KT 180V250 9999 NCD 07/05 Q1015  
EGPI 171320Z AUTO 22013KT 9999 NCD 07/05 Q1015 RERA 
EGPI 171250Z AUTO 22013KT 9999 FEW016/// SCT026/// 07/05 Q1016 RERA 
EGPI 171220Z AUTO 21014KT 190V250 9999 FEW014/// 07/05 Q1015
EGPI 171150Z AUTO 23013KT 9999 BKN013/// SCT034/// 07/04 Q1015 RERA 
EGPI 171120Z AUTO 22013KT 9999 SCT011/// 07/05 Q1015 RERA   
EGPI 171050Z 23015KT 9999 FEW028 BKN036 07/05 Q1015 
EGPI 171020Z 22012KT 190V250 9999 BKN048 06/04 Q1015
EGPI 170950Z 22012KT 9999 FEW039 06/04 Q1014
EGPI 170920Z 23011KT 9999 FEW036 05/03 Q1014
EGPI 170850Z 23013KT 9999 FEW014 06/04 Q1014
EGPI 170820Z 24014KT 9999 FEW016 05/04 Q1014
EGPI 170750Z AUTO 23014KT 9999 SCT016/// 05/04 Q1014
EGPI 170720Z AUTO 24012KT 9999 FEW012/// 05/04 Q1013
EGPI 170650Z AUTO 23014KT 9999 FEW013/// 05/03 Q1013
EGPI 170620Z AUTO 23014KT 9999 FEW012/// 05/04 Q1013
EGPI 170550Z AUTO 22014KT 190V360 9999 FEW013/// BKN024/// 05/04 Q1013  
EGPI 170520Z AUTO 22014KT 9999 FEW034/// SCT039/// 05/04 Q1013  
EGPI 170450Z AUTO 21012KT 180V240 9999 FEW014/// BKN033/// 06/04 Q1013  
EGPI 170420Z AUTO 21010KT 180V240 9999 SCT014/// SCT039/// BKN045/// 05/04 Q1013
EGPI 170350Z AUTO 14006KT 110V180 9999 BKN012/// 04/03 Q1013
EGPI 170320Z AUTO 16004KT 130V190 9999 SCT011/// SCT036/// 04/02 Q1013  
EGPI 170250Z AUTO 20009KT 150V220 9999 BKN012/// 05/04 Q1012
EGPI 170220Z AUTO 20010KT 160V230 9999 BKN012/// SCT038/// 05/04 Q1012